Terminal Aerodrome Forecast
Issued by NWS Des Moines, IA

Home | Current Version | Previous Version | Text Only | Print | Product List | Glossary On
Versions: 1 2 3 4 5 6 7 8 9 10 11 12 13 14 15 16 17 18 19 20 21 22 23 24 25 26 27 28 29 30 31 32 33 34 35 36 37 38 39 40 41 42 43 44 45 46 47 48
000
FTUS43 KDMX 191316 AAB
TAFDSM
TAF AMD
KDSM 191316Z 1913/2012 13005KT 5SM -RA BR BKN035 OVC070
      TEMPO 1913/1915 3SM -RA BR SCT011 BKN025
     FM191700 32011KT P6SM SHRA SCT010 BKN035
     FM200300 32012KT P6SM SCT050 BKN100=

USA.gov is the U.S. government's official web portal to all federal, state and local government web resources and services.